Kezdőlap
METAR-TAF:

METAR-TAF

Repülőterek :

Bolzano, Olaszország

földrajzi szélesség: 46-28N, földrajzi hosszúság: 011-20E, magasság: 262 m

Jelenlegi meteorológiai megfigyelések

A jelentés 1 órával és 4 perccel ezelõtt készült, 12:50 UTC
Déli szél 7 kt, délkeleti és nyugat-délnyugati között változik
Hőmérséklet 15°C
Páratartalom 33%
Légköri nyomás 1010 hPa
Látótávolság 10 km, vagy több
felhőtlen 1500 m magasságban, és nincs gomolyfelhõ

METAR: LIPB 021250Z 17007KT 130V240 CAVOK 15/M01 Q1010 RMK MON LIB

Idő: 15:54 (13:54 UTC)

Előrejelzés

A jelentés 2 órával és 54 perccel ezelõtt készült, 11:00 UTC
Az előrejelzés 02-én 12 óra UTC és 03-én 12 óra UTC között érvényes
Különbözõ irányokból fújó szél 5 kt
Látótávolság 10 km, vagy több
felhőtlen 1500 m magasságban, és nincs gomolyfelhõ
02-én 13 óra UTC és 02-én 18 óra UTC között ideiglenes
Dél-délkeleti szél 12 kt

TAF: LIPB 021100Z 0212/0312 VRB05KT CAVOK TEMPO 0213/0218 16012KT

Meteorológiai megfigyelések és előrejelzések több, mint 4000 repülőtéren (METAR és TAF jelentéseket).

A térképen piros és sárga pontok jelzik az elérhető meteorológiai állomásokat.

Mozgassa az egeret a pont fölött, hogy megjelenjen az állomás neve.

Azután kattintson az időjárási megfigyelések és előrejelzések megtekintéséhez.

A térkép megváltoztatása: kattintson a fekete keresztel jelölt zöld gombra ráközelítéshez, a vonallal jelölt zöld gombra távolításhoz, vagy a zöld nyilakra a szomszédos térképek eléréséhez.


METAR-TAF: